Isle of Benbecula, United Kingdom
Current Conditions -  °F | °C
As of 2:20 AM on Sunday 26 Oct 2014 (Local Time) from EGPL Reporting Station
Few Clouds Few Clouds  
Wind Chill: 52°   Ceiling: Unl
Heat Index: 52°   Visibility: 4mi
Dew Point: 46°   Wind: 37mph
Humidity: 82%   Direction: 230°SW
Pressure: 29.38"   Gusts: 51mph
Location:  57.47°N, 7.37°W
Report Text: EGPL 260120Z AUTO 23032G44KT 7000 FEW021/// 11/08 Q0995
Loading
Personal Weather Stations






























Interactive Weather Map
Tropical Storm Tracking
New forecast layout! Learn more

10-Day Weather Forecast

Advertisements
Track Severe Weather on mobile